Fida — V7YD5 — position and weather

sailwx.info

Track history (hours):
 
Tides and Currents Weather Stations Pressure Air Temp Water Temp Dewpoint Dewpoint Depression Visibility Wind Speed Wind Dir Waves Ship Positions

Fida

Last reported at 2018-Feb-02 01:39 UTC. Time now 2018-Feb-24 14:25 UTC.
Position N 29°41' W 117°29'.
Warning: this ship's position is 22 days out of date.

Length 333 m; draft 11 m.

Type: Tanker. MMSI: 538004633.

Date/timePositionNaut miles runAvg speedWind from/ knotsBaromVisibWave heightAir tempDewpointWater temp
2018-Feb-02 01:39N 29°41' W 117°29'5314.7
2018-Feb-01 22:00N 30°26' W 118°03'4614.2
2018-Feb-01 18:46N 31°11' W 117°53'3914.1
2018-Feb-01 16:01N 31°48' W 117°40'015.9
2018-Feb-01 16:00N 31°48' W 117°40'813.9
2018-Feb-01 15:25N 31°56' W 117°38'614.2
2018-Feb-01 15:00N 32°02' W 117°38'2114.3
2018-Feb-01 13:30N 32°23' W 117°37'713.8
2018-Feb-01 13:00N 32°30' W 117°36'612.0
2018-Feb-01 12:30N 32°36' W 117°37'611.9
2018-Feb-01 12:01N 32°42' W 117°41'1211.8
2018-Feb-01 11:01N 32°52' W 117°48'611.9
2018-Feb-01 10:31N 32°56' W 117°52'2 3.6
2018-Feb-01 10:00N 32°58' W 117°52'1 2.7
2018-Feb-01 09:30N 32°59' W 117°53'1 2.8
2018-Feb-01 09:00N 33°01' W 117°54'1 1.0
2018-Feb-01 08:30N 33°01' W 117°54'2 1.9
2018-Feb-01 07:30N 33°02' W 117°56'3 6.9
2018-Feb-01 07:00N 33°05' W 117°58'611.7
2018-Feb-01 06:30N 33°11' W 118°01'611.8
2018-Feb-01 06:01N 33°16' W 118°04'611.6
2018-Feb-01 05:30N 33°21' W 118°07'611.6
2018-Feb-01 05:00N 33°27' W 118°09'611.9
2018-Feb-01 04:30N 33°32' W 118°12'510.9
2018-Feb-01 04:00N 33°38' W 118°13'6 6.5
2018-Feb-01 03:00N 33°44' W 118°13'0 0.1
2018-Feb-01 02:30N 33°44' W 118°13'0 0.0
2018-Feb-01 02:00N 33°44' W 118°13'0 0.1
2018-Feb-01 01:30N 33°44' W 118°13'0 0.0
2018-Feb-01 01:00N 33°44' W 118°13'0 0.0
2018-Feb-01 00:30N 33°44' W 118°13'0 0.1
2018-Feb-01 00:00N 33°44' W 118°13'0 0.1
2018-Jan-31 23:00N 33°44' W 118°13'0 0.0
2018-Jan-31 22:24N 33°44' W 118°13'0 0.0
2018-Jan-31 21:00N 33°44' W 118°13'0 0.1
2018-Jan-31 20:30N 33°44' W 118°13'0 0.1
2018-Jan-31 20:00N 33°44' W 118°13'0 0.2
2018-Jan-31 19:30N 33°44' W 118°13'0 0.2
2018-Jan-31 19:00N 33°44' W 118°13'0 0.2
2018-Jan-31 18:30N 33°44' W 118°13'0 0.0
2018-Jan-31 18:00N 33°44' W 118°13'0 0.1
2018-Jan-31 17:30N 33°44' W 118°13'0 0.1
2018-Jan-31 17:00N 33°44' W 118°13'0 0.0
2018-Jan-31 16:27N 33°44' W 118°13'0 0.1
2018-Jan-31 16:00N 33°44' W 118°13'0 0.0
2018-Jan-31 15:30N 33°44' W 118°13'0 0.0
2018-Jan-31 14:57N 33°44' W 118°13'0 0.0
2018-Jan-31 14:09N 33°44' W 118°13'0 0.0
2018-Jan-31 12:57N 33°44' W 118°13'0 0.1
2018-Jan-31 12:30N 33°44' W 118°13'0 0.2
2018-Jan-31 11:54N 33°44' W 118°13'0 0.1
2018-Jan-31 11:30N 33°44' W 118°13'0 0.0
2018-Jan-31 11:00N 33°44' W 118°13'0 0.0
2018-Jan-31 10:30N 33°44' W 118°13'0 0.0
2018-Jan-31 10:00N 33°44' W 118°13'0 0.0
2018-Jan-31 09:30N 33°44' W 118°13'0 0.0
2018-Jan-31 08:59N 33°44' W 118°13'0 0.1
2018-Jan-31 08:26N 33°44' W 118°13'0 0.2
2018-Jan-31 08:00N 33°44' W 118°13'0 0.1
2018-Jan-31 07:26N 33°44' W 118°13'0 0.1
2018-Jan-31 06:53N 33°44' W 118°13'0 0.2
2018-Jan-31 06:29N 33°44' W 118°13'0 0.1
2018-Jan-31 05:59N 33°44' W 118°13'0 0.0
2018-Jan-31 05:29N 33°44' W 118°13'0 0.1
2018-Jan-31 04:56N 33°44' W 118°13'0 0.2
2018-Jan-31 04:29N 33°44' W 118°13'0 0.1
2018-Jan-31 03:59N 33°44' W 118°13'0 0.0
2018-Jan-31 03:29N 33°44' W 118°13'0 0.1
2018-Jan-31 02:59N 33°44' W 118°13'0 0.2
2018-Jan-31 02:29N 33°44' W 118°13'0 0.2
2018-Jan-31 01:59N 33°44' W 118°13'0 0.1
2018-Jan-31 01:26N 33°44' W 118°13'0 0.1
2018-Jan-31 00:59N 33°44' W 118°13'3 3.2
2018-Jan-31 00:00N 33°41' W 118°11'3 5.9
2018-Jan-30 23:30N 33°38' W 118°10'2 4.9
2018-Jan-30 23:00N 33°36' W 118°10'4 8.6
2018-Jan-30 22:30N 33°32' W 118°08'3 2.9
2018-Jan-30 21:30N 33°29' W 118°07'1 1.3
2018-Jan-30 21:00N 33°29' W 118°06'0 0.3
2018-Jan-30 20:30N 33°29' W 118°06'0 0.2
2018-Jan-30 20:00N 33°29' W 118°06'0 0.4
2018-Jan-30 19:30N 33°28' W 118°07'1 1.3
2018-Jan-30 19:00N 33°28' W 118°06'2 3.0
2018-Jan-30 18:30N 33°26' W 118°06'4 8.1
2018-Jan-30 17:58N 33°22' W 118°04'4 9.7
2018-Jan-30 17:30N 33°18' W 118°02'4 8.8
2018-Jan-30 17:00N 33°14' W 117°59'2 3.3
2018-Jan-30 16:30N 33°13' W 117°59'2 3.7
2018-Jan-30 16:00N 33°11' W 117°58'3 5.8
2018-Jan-30 15:30N 33°08' W 117°56'3 6.3
2018-Jan-30 15:00N 33°06' W 117°54'3 6.7
2018-Jan-30 14:30N 33°04' W 117°51'1 1.4
2018-Jan-30 13:30N 33°03' W 117°49'0 0.8
2018-Jan-30 13:00N 33°03' W 117°49'0 1.0
2018-Jan-30 12:30N 33°02' W 117°49'0 0.7
2018-Jan-30 12:00N 33°02' W 117°49'0 0.7
2018-Jan-30 11:30N 33°02' W 117°48'1 0.7
2018-Jan-30 10:30N 33°01' W 117°48'1 0.8
2018-Jan-30 09:30N 33°01' W 117°47'0 0.8
2018-Jan-30 09:00N 33°00' W 117°47'0 0.8
2018-Jan-30 08:30N 32°60' W 117°47'0 0.8
2018-Jan-30 08:00N 32°59' W 117°47'0 1.0
2018-Jan-30 07:30N 32°59' W 117°46'0 0.9
2018-Jan-30 07:00N 32°59' W 117°46'0 0.9
2018-Jan-30 06:28N 32°58' W 117°46'0 1.0
2018-Jan-30 06:00N 32°58' W 117°46'0 0.9
2018-Jan-30 05:30N 32°57' W 117°45'1 1.0
2018-Jan-30 05:00N 32°57' W 117°45'0 1.0
2018-Jan-30 04:30N 32°57' W 117°45'1 1.2
2018-Jan-30 04:00N 32°56' W 117°44'1 1.1
2018-Jan-30 03:30N 32°56' W 117°44'1 1.1
2018-Jan-30 03:00N 32°55' W 117°44'0 0.9
2018-Jan-30 02:30N 32°55' W 117°44'0 0.8
2018-Jan-30 02:00N 32°54' W 117°44'0 0.7
2018-Jan-30 01:30N 32°54' W 117°44'0 0.7
2018-Jan-30 01:00N 32°54' W 117°44'1 1.3
2018-Jan-30 00:30N 32°54' W 117°45'1 1.3
2018-Jan-30 00:00N 32°55' W 117°45'1 1.2
2018-Jan-29 23:30N 32°55' W 117°45'1 1.3
2018-Jan-29 23:00N 32°56' W 117°46'1 1.4
2018-Jan-29 22:30N 32°56' W 117°46'1 1.6
2018-Jan-29 22:00N 32°57' W 117°47'1 1.5
2018-Jan-29 21:30N 32°58' W 117°47'1 1.6
2018-Jan-29 21:00N 32°58' W 117°48'1 1.5
2018-Jan-29 20:30N 32°59' W 117°48'1 1.7
2018-Jan-29 20:00N 32°59' W 117°49'1 2.4
2018-Jan-29 19:30N 33°00' W 117°50'2 3.6
2018-Jan-29 19:00N 33°02' W 117°51'2 4.6
2018-Jan-29 18:30N 33°04' W 117°53'2 4.6
2018-Jan-29 18:00N 33°06' W 117°54'2 4.3
2018-Jan-29 17:30N 33°07' W 117°56'1 1.0
2018-Jan-29 17:00N 33°08' W 117°56'1 1.2
2018-Jan-29 16:30N 33°08' W 117°57'1 1.9
2018-Jan-29 16:00N 33°09' W 117°57'2 3.4
2018-Jan-29 15:30N 33°10' W 117°56'1 2.1
2018-Jan-29 15:00N 33°09' W 117°55'0 0.4
2018-Jan-29 14:30N 33°09' W 117°55'0 0.2
2018-Jan-29 14:00N 33°09' W 117°55'0 0.1
2018-Jan-29 13:30N 33°09' W 117°55'0 0.1
2018-Jan-29 13:00N 33°09' W 117°56'0 0.0
2018-Jan-29 12:30N 33°09' W 117°56'0 0.1
2018-Jan-29 12:00N 33°09' W 117°56'0 0.3
2018-Jan-29 11:30N 33°09' W 117°56'0 0.2
2018-Jan-29 10:59N 33°09' W 117°56'0 0.3
2018-Jan-29 10:30N 33°09' W 117°56'0 0.4
2018-Jan-29 10:00N 33°09' W 117°56'0 0.4
2018-Jan-29 09:30N 33°10' W 117°56'0 0.3
2018-Jan-29 09:00N 33°10' W 117°57'0 0.3
2018-Jan-29 08:30N 33°10' W 117°57'0 0.4
2018-Jan-29 08:00N 33°10' W 117°57'0 0.4
2018-Jan-29 07:30N 33°10' W 117°57'0 0.5
2018-Jan-29 07:01N 33°10' W 117°58'0 0.4
2018-Jan-29 06:30N 33°10' W 117°58'0 0.2
2018-Jan-29 06:00N 33°10' W 117°58'0 0.2
2018-Jan-29 05:30N 33°10' W 117°58'0 0.2
2018-Jan-29 05:00N 33°10' W 117°58'0 0.1
2018-Jan-29 04:30N 33°10' W 117°58'0 0.2
2018-Jan-29 04:00N 33°10' W 117°58'0 0.3
2018-Jan-29 03:30N 33°10' W 117°58'0 0.7
2018-Jan-29 03:00N 33°10' W 117°57'1 1.5
2018-Jan-29 02:30N 33°09' W 117°57'2 3.0
2018-Jan-29 02:00N 33°09' W 117°55'3 6.8
2018-Jan-29 01:30N 33°07' W 117°52'2 4.2
2018-Jan-29 01:00N 33°05' W 117°50'1 1.0
2018-Jan-29 00:30N 33°05' W 117°49'1 1.6
2018-Jan-29 00:00N 33°04' W 117°49'1 1.4
2018-Jan-28 23:30N 33°04' W 117°48'1 1.5
2018-Jan-28 23:00N 33°03' W 117°48'1 2.1
2018-Jan-28 22:30N 33°02' W 117°47'1 2.3
2018-Jan-28 21:58N 33°01' W 117°47'1 1.8
2018-Jan-28 21:17N 32°60' W 117°46'0 1.5
2018-Jan-28 21:00N 32°59' W 117°46'0 0.5
2018-Jan-28 20:30N 32°59' W 117°46'0 0.7
2018-Jan-28 20:00N 32°59' W 117°46'1 2.0
2018-Jan-28 19:30N 32°58' W 117°45'1 2.2
2018-Jan-28 19:00N 32°57' W 117°45'1 1.8
2018-Jan-28 18:30N 32°56' W 117°44'0 0.9
2018-Jan-28 18:00N 32°56' W 117°44'0 0.8
2018-Jan-28 17:30N 32°56' W 117°44'0 0.7
2018-Jan-28 17:00N 32°55' W 117°43'0 0.6
2018-Jan-28 16:30N 32°55' W 117°43'0 0.6
2018-Jan-28 16:00N 32°55' W 117°43'1 1.1
2018-Jan-28 15:28N 32°54' W 117°43'1 1.4
2018-Jan-28 15:00N 32°54' W 117°43'0 1.0
2018-Jan-28 14:30N 32°54' W 117°43'0 0.9
2018-Jan-28 14:00N 32°54' W 117°44'0 1.0
2018-Jan-28 13:30N 32°54' W 117°44'0 0.9
2018-Jan-28 13:00N 32°54' W 117°45'0 0.9
2018-Jan-28 12:30N 32°54' W 117°46'1 1.0
2018-Jan-28 12:00N 32°55' W 117°46'0 1.0
2018-Jan-28 11:30N 32°55' W 117°47'1 1.0
2018-Jan-28 11:01N 32°55' W 117°47'1 1.1
2018-Jan-28 10:30N 32°56' W 117°47'1 1.2
2018-Jan-28 10:00N 32°56' W 117°48'1 1.5
2018-Jan-28 09:30N 32°57' W 117°48'1 1.8
2018-Jan-28 09:00N 32°58' W 117°49'1 2.4
2018-Jan-28 08:30N 32°59' W 117°50'1 3.0
2018-Jan-28 08:00N 32°60' W 117°51'2 4.3
2018-Jan-28 07:31N 33°02' W 117°52'2 4.6
2018-Jan-28 07:00N 33°04' W 117°53'2 4.7
2018-Jan-28 06:30N 33°06' W 117°55'2 4.5
2018-Jan-28 06:00N 33°08' W 117°56'1 1.9
2018-Jan-28 05:30N 33°08' W 117°57'1 1.1
2018-Jan-28 05:00N 33°09' W 117°57'2 3.7
2018-Jan-28 04:31N 33°10' W 117°56'4 7.6
2018-Jan-28 04:00N 33°11' W 117°52'0 0.9
2018-Jan-28 03:30N 33°11' W 117°51'0 0.7
2018-Jan-28 03:00N 33°11' W 117°52'0 0.5
2018-Jan-28 02:30N 33°11' W 117°52'0 0.6
2018-Jan-28 02:00N 33°11' W 117°52'0 0.6
2018-Jan-28 01:31N 33°11' W 117°53'0 0.6
2018-Jan-28 01:01N 33°11' W 117°53'0 0.7
2018-Jan-28 00:31N 33°11' W 117°53'0 0.8
2018-Jan-28 00:00N 33°11' W 117°54'0 0.7
2018-Jan-27 23:30N 33°11' W 117°54'0 0.8
2018-Jan-27 23:00N 33°11' W 117°55'0 0.7
2018-Jan-27 22:31N 33°11' W 117°55'0 0.9
2018-Jan-27 22:00N 33°11' W 117°56'0 0.8
2018-Jan-27 21:30N 33°11' W 117°56'0 0.8
2018-Jan-27 21:01N 33°11' W 117°57'0 0.7
2018-Jan-27 20:31N 33°11' W 117°57'0 0.5
2018-Jan-27 20:00N 33°11' W 117°57'0 0.4
2018-Jan-27 19:30N 33°11' W 117°58'0 0.4
2018-Jan-27 19:01N 33°11' W 117°57'0 0.9
2018-Jan-27 18:31N 33°11' W 117°57'2 3.3
2018-Jan-27 18:00N 33°09' W 117°57'4 7.7
2018-Jan-27 17:30N 33°05' W 117°57'4 8.1
2018-Jan-27 16:59N 33°01' W 117°57'4 8.1
2018-Jan-27 16:30N 32°57' W 117°57'1 1.7
2018-Jan-27 15:59N 32°57' W 117°58'0 0.4
2018-Jan-27 15:30N 32°57' W 117°59'0 0.4
2018-Jan-27 15:00N 32°57' W 117°59'0 0.4
2018-Jan-27 14:30N 32°57' W 117°59'0 0.2
2018-Jan-27 14:01N 32°57' W 117°59'0 0.3
2018-Jan-27 13:31N 32°57' W 117°59'0 0.3
2018-Jan-27 13:00N 32°57' W 117°59'0 0.3
2018-Jan-27 12:30N 32°58' W 117°60'0 0.3
2018-Jan-27 12:00N 32°58' W 117°60'0 0.5
2018-Jan-27 11:31N 32°58' W 117°60'0 0.4
2018-Jan-27 11:00N 32°58' W 117°60'0 0.5
2018-Jan-27 10:30N 32°58' W 118°00'0 0.4
2018-Jan-27 10:00N 32°59' W 118°00'0 0.5
2018-Jan-27 09:30N 32°59' W 118°00'0 0.5
2018-Jan-27 09:01N 32°59' W 118°00'0 0.5
2018-Jan-27 08:30N 32°59' W 118°00'0 0.5
2018-Jan-27 08:00N 32°59' W 118°00'0 0.5
2018-Jan-27 07:30N 32°60' W 118°00'0 0.6
2018-Jan-27 07:00N 32°60' W 118°01'0 0.6
2018-Jan-27 06:30N 33°00' W 118°01'0 0.5
2018-Jan-27 06:00N 33°00' W 118°01'0 0.6
2018-Jan-27 05:31N 33°01' W 118°01'0 0.7
2018-Jan-27 05:00N 33°01' W 118°01'0 0.6
2018-Jan-27 04:30N 33°01' W 118°01'0 0.6
2018-Jan-27 03:59N 33°02' W 118°01'0 0.7
2018-Jan-27 03:30N 33°02' W 118°01'0 0.6
2018-Jan-27 03:00N 33°02' W 118°02'0 0.7
2018-Jan-27 02:29N 33°03' W 118°02'0 0.6
2018-Jan-27 02:00N 33°03' W 118°02'0 0.6
2018-Jan-27 01:30N 33°03' W 118°02'0 0.7
2018-Jan-27 01:01N 33°03' W 118°02'0 0.6
2018-Jan-27 00:30N 33°04' W 118°02'0 0.6
2018-Jan-27 00:00N 33°04' W 118°03'0 0.6
2018-Jan-26 23:30N 33°04' W 118°03'0 0.6
2018-Jan-26 23:00N 33°04' W 118°03'0 0.7
2018-Jan-26 22:30N 33°05' W 118°03'0 0.7
2018-Jan-26 22:00N 33°05' W 118°03'2 3.6
2018-Jan-26 21:30N 33°05' W 118°01'5 9.2
2018-Jan-26 21:00N 33°07' W 117°56'510.0
2018-Jan-26 20:30N 33°09' W 117°50'5 9.4
2018-Jan-26 20:00N 33°11' W 117°45'3 5.2
2018-Jan-26 19:30N 33°11' W 117°42'0 0.8
2018-Jan-26 19:00N 33°11' W 117°43'0 0.6
2018-Jan-26 18:30N 33°10' W 117°43'0 0.6
2018-Jan-26 18:00N 33°10' W 117°43'0 0.6
2018-Jan-26 17:30N 33°10' W 117°43'0 0.5
2018-Jan-26 17:00N 33°10' W 117°44'0 0.5
2018-Jan-26 16:30N 33°10' W 117°44'0 0.4
2018-Jan-26 16:00N 33°10' W 117°44'0 0.4
2018-Jan-26 15:30N 33°10' W 117°44'0 0.5
2018-Jan-26 15:00N 33°10' W 117°45'0 0.5
2018-Jan-26 14:30N 33°10' W 117°45'0 0.5
2018-Jan-26 14:00N 33°10' W 117°45'0 0.6
2018-Jan-26 13:30N 33°11' W 117°45'0 0.6
2018-Jan-26 13:00N 33°11' W 117°46'0 0.6
2018-Jan-26 12:30N 33°11' W 117°46'0 0.6
2018-Jan-26 12:00N 33°11' W 117°46'0 0.8
2018-Jan-26 11:30N 33°11' W 117°47'0 0.9
2018-Jan-26 11:00N 33°11' W 117°47'0 0.9
2018-Jan-26 10:30N 33°11' W 117°48'1 1.1
2018-Jan-26 10:00N 33°11' W 117°49'1 1.1
2018-Jan-26 09:30N 33°11' W 117°49'1 1.3
2018-Jan-26 09:00N 33°11' W 117°50'1 1.4
2018-Jan-26 08:30N 33°10' W 117°51'1 1.3
2018-Jan-26 08:00N 33°10' W 117°52'1 1.5
2018-Jan-26 07:30N 33°10' W 117°52'1 1.4
2018-Jan-26 07:00N 33°10' W 117°53'1 1.4
2018-Jan-26 06:30N 33°09' W 117°54'1 1.2
2018-Jan-26 06:00N 33°09' W 117°55'1 1.1
2018-Jan-26 05:30N 33°09' W 117°55'1 1.2
2018-Jan-26 05:00N 33°09' W 117°56'1 1.0
2018-Jan-26 04:30N 33°09' W 117°57'0 0.8
2018-Jan-26 03:53N 33°09' W 117°57'1 0.9
2018-Jan-26 03:19N 33°09' W 117°57'1 2.4
2018-Jan-26 02:58N 33°08' W 117°57'3 6.7
2018-Jan-26 02:30N 33°08' W 117°53'3 5.1
2018-Jan-26 02:00N 33°08' W 117°50'0 0.9
2018-Jan-26 01:30N 33°09' W 117°50'0 0.9
2018-Jan-26 01:00N 33°09' W 117°50'1 2.1
2018-Jan-26 00:30N 33°10' W 117°49'1 1.0
2018-Jan-26 00:00N 33°10' W 117°49'0 0.3
2018-Jan-25 23:30N 33°10' W 117°49'0 0.3
2018-Jan-25 22:59N 33°09' W 117°49'0 0.4
2018-Jan-25 22:30N 33°09' W 117°50'0 0.4
2018-Jan-25 22:00N 33°09' W 117°50'0 0.4
2018-Jan-25 21:30N 33°09' W 117°50'0 0.3
2018-Jan-25 21:00N 33°09' W 117°50'0 0.4
2018-Jan-25 20:30N 33°09' W 117°50'0 0.4
2018-Jan-25 20:00N 33°09' W 117°51'0 0.4
2018-Jan-25 19:30N 33°09' W 117°51'0 0.4
2018-Jan-25 19:00N 33°09' W 117°51'0 0.5
2018-Jan-25 18:30N 33°09' W 117°51'0 0.4
2018-Jan-25 18:00N 33°09' W 117°52'0 0.5
2018-Jan-25 17:30N 33°09' W 117°52'0 0.5
2018-Jan-25 17:00N 33°09' W 117°52'0 0.5
2018-Jan-25 16:31N 33°09' W 117°53'0 0.5
2018-Jan-25 16:01N 33°09' W 117°53'0 0.5
2018-Jan-25 15:31N 33°09' W 117°53'0 0.4
2018-Jan-25 15:01N 33°09' W 117°53'0 0.4
2018-Jan-25 14:30N 33°10' W 117°54'0 0.4
2018-Jan-25 14:00N 33°10' W 117°54'0 0.6
2018-Jan-25 13:29N 33°09' W 117°54'0 0.6
2018-Jan-25 13:00N 33°09' W 117°55'0 0.8
2018-Jan-25 12:25N 33°09' W 117°55'0 0.8
2018-Jan-25 12:00N 33°09' W 117°55'0 0.7
2018-Jan-25 11:30N 33°09' W 117°56'0 0.6
2018-Jan-25 10:59N 33°09' W 117°56'0 0.5
2018-Jan-25 10:30N 33°09' W 117°56'0 0.4
2018-Jan-25 10:00N 33°08' W 117°57'0 0.2
2018-Jan-25 09:30N 33°08' W 117°57'0 0.1
2018-Jan-25 09:01N 33°08' W 117°57'0 0.1
2018-Jan-25 08:30N 33°08' W 117°57'0 0.1
2018-Jan-25 08:00N 33°08' W 117°57'0 0.2
2018-Jan-25 07:30N 33°08' W 117°57'0 0.4
2018-Jan-25 07:00N 33°08' W 117°57'0 1.0
2018-Jan-25 06:30N 33°08' W 117°56'1 2.0
2018-Jan-25 06:00N 33°07' W 117°55'2 4.0
2018-Jan-25 05:30N 33°06' W 117°53'2 4.6
2018-Jan-25 04:59N 33°06' W 117°50'1 1.5
2018-Jan-25 04:29N 33°05' W 117°50'1 1.1
2018-Jan-25 04:00N 33°05' W 117°49'1 2.2
2018-Jan-25 03:30N 33°04' W 117°48'1 2.5
2018-Jan-25 03:00N 33°03' W 117°47'1 1.4
2018-Jan-25 02:30N 33°03' W 117°47'0 1.0
2018-Jan-25 02:00N 33°02' W 117°47'1 1.2
2018-Jan-25 01:30N 33°02' W 117°46'0 0.9
2018-Jan-25 01:01N 33°01' W 117°46'0 0.9
2018-Jan-25 00:31N 33°01' W 117°46'1 1.2
2018-Jan-25 00:01N 33°00' W 117°46'1 1.2
2018-Jan-24 23:30N 32°60' W 117°46'1 1.0
2018-Jan-24 23:00N 32°59' W 117°45'1 1.1
2018-Jan-24 22:30N 32°59' W 117°45'1 1.0
2018-Jan-24 22:00N 32°58' W 117°45'1 1.0
2018-Jan-24 21:30N 32°58' W 117°45'1 1.0
2018-Jan-24 21:00N 32°57' W 117°45'1 1.2
2018-Jan-24 20:30N 32°57' W 117°45'1 1.0
2018-Jan-24 20:00N 32°56' W 117°44'0 1.0
2018-Jan-24 19:31N 32°56' W 117°45'1 1.0
2018-Jan-24 19:00N 32°57' W 117°45'0 0.9
2018-Jan-24 18:31N 32°57' W 117°46'0 0.9
2018-Jan-24 18:00N 32°57' W 117°46'0 0.9
2018-Jan-24 17:30N 32°58' W 117°46'0 1.0
2018-Jan-24 17:00N 32°58' W 117°47'0 0.9
2018-Jan-24 16:30N 32°58' W 117°47'0 0.9
2018-Jan-24 16:00N 32°59' W 117°47'0 0.9
2018-Jan-24 15:31N 32°59' W 117°48'0 0.9
2018-Jan-24 15:00N 32°59' W 117°48'0 1.0
2018-Jan-24 14:30N 32°60' W 117°48'0 1.0
2018-Jan-24 14:00N 33°00' W 117°49'0 0.8
2018-Jan-24 13:30N 33°00' W 117°49'0 0.8
2018-Jan-24 13:01N 33°00' W 117°50'0 0.9
2018-Jan-24 12:30N 33°01' W 117°50'0 0.9
2018-Jan-24 12:00N 33°01' W 117°51'1 1.8
2018-Jan-24 11:30N 33°02' W 117°51'1 2.5
2018-Jan-24 11:00N 33°03' W 117°52'2 3.7
2018-Jan-24 10:30N 33°04' W 117°53'2 4.4
2018-Jan-24 10:00N 33°06' W 117°55'2 4.6
2018-Jan-24 09:30N 33°08' W 117°56'1 2.9
2018-Jan-24 09:00N 33°09' W 117°57'1 1.4
2018-Jan-24 08:30N 33°10' W 117°57'0 1.0
2018-Jan-24 08:00N 33°10' W 117°57'0 0.7
2018-Jan-24 07:30N 33°09' W 117°58'1 2.2
2018-Jan-24 07:00N 33°08' W 117°57'3 6.1
2018-Jan-24 06:30N 33°07' W 117°54'4 8.7
2018-Jan-24 06:00N 33°04' W 117°50'4 7.6
2018-Jan-24 05:30N 33°02' W 117°46'1 2.4
2018-Jan-24 05:00N 33°01' W 117°45'0 0.6
2018-Jan-24 04:30N 33°01' W 117°45'0 0.6
2018-Jan-24 04:00N 33°02' W 117°46'0 0.6
2018-Jan-24 03:31N 33°02' W 117°46'0 0.7
2018-Jan-24 03:00N 33°02' W 117°46'0 0.7
2018-Jan-24 02:31N 33°02' W 117°47'0 0.7
2018-Jan-24 02:01N 33°02' W 117°47'0 0.8
2018-Jan-24 01:31N 33°02' W 117°48'0 0.8
2018-Jan-24 01:01N 33°02' W 117°48'0 0.8
2018-Jan-24 00:31N 33°02' W 117°49'0 0.8
2018-Jan-24 00:00N 33°02' W 117°49'0 0.8
2018-Jan-23 23:30N 33°02' W 117°50'0 0.8
2018-Jan-23 23:00N 33°01' W 117°50'0 0.8
2018-Jan-23 22:31N 33°01' W 117°51'0 0.7
2018-Jan-23 22:00N 33°01' W 117°51'0 0.7
2018-Jan-23 21:30N 33°01' W 117°51'0 0.7
2018-Jan-23 21:00N 33°01' W 117°52'0 0.6
2018-Jan-23 20:31N 33°01' W 117°52'0 0.7
2018-Jan-23 20:00N 33°01' W 117°53'0 0.6
2018-Jan-23 19:30N 33°01' W 117°53'0 0.7
2018-Jan-23 19:00N 33°01' W 117°53'0 0.8
2018-Jan-23 18:30N 33°01' W 117°54'0 0.7
2018-Jan-23 18:00N 33°01' W 117°54'0 0.6
2018-Jan-23 17:30N 33°00' W 117°55'0 0.7
2018-Jan-23 17:00N 33°00' W 117°55'0 0.7
2018-Jan-23 16:30N 33°00' W 117°55'0 0.6
2018-Jan-23 16:00N 33°00' W 117°56'0 0.6
2018-Jan-23 15:30N 33°00' W 117°56'0 0.6
2018-Jan-23 15:01N 33°00' W 117°57'0 0.5
2018-Jan-23 14:30N 33°00' W 117°57'0 0.6
2018-Jan-23 14:00N 33°00' W 117°57'0 0.5
2018-Jan-23 13:30N 33°00' W 117°57'0 0.5
2018-Jan-23 13:00N 33°00' W 117°58'0 0.5
2018-Jan-23 12:30N 33°00' W 117°58'0 0.5
2018-Jan-23 12:00N 33°00' W 117°58'0 0.4
2018-Jan-23 11:30N 33°00' W 117°59'0 0.4
2018-Jan-23 11:00N 33°00' W 117°59'0 0.4
2018-Jan-23 10:30N 33°00' W 117°59'0 0.3
2018-Jan-23 10:00N 33°00' W 117°59'0 0.1
2018-Jan-23 09:30N 33°00' W 117°59'0 0.2
2018-Jan-23 09:00N 33°00' W 117°59'0 0.3
2018-Jan-23 08:28N 33°00' W 117°60'0 0.3
2018-Jan-23 07:57N 33°00' W 117°60'0 0.3
2018-Jan-23 07:30N 33°00' W 118°00'0 0.3
2018-Jan-23 07:00N 33°00' W 118°00'0 0.3
2018-Jan-23 06:30N 33°00' W 118°00'0 0.4
2018-Jan-23 06:00N 33°00' W 118°01'0 0.7
2018-Jan-23 05:30N 33°00' W 118°01'0 0.6
2018-Jan-23 05:01N 33°01' W 118°01'0 0.6
2018-Jan-23 04:31N 33°01' W 118°02'0 0.6
2018-Jan-23 04:00N 33°01' W 118°02'0 0.6
2018-Jan-23 03:30N 33°01' W 118°02'0 0.7
2018-Jan-23 02:58N 33°01' W 118°03'0 0.6
2018-Jan-23 02:30N 33°01' W 118°03'0 0.7
2018-Jan-23 02:00N 33°01' W 118°03'  
Track history (hours):
 
Tides and Currents Weather Stations Pressure Air Temp Water Temp Dewpoint Dewpoint Depression Visibility Wind Speed Wind Dir Waves Ship Positions

Fida

Last reported at 2018-Feb-02 01:39 UTC. Time now 2018-Feb-24 14:25 UTC.
Position N 29°41' W 117°29'.
Warning: this ship's position is 22 days out of date.

Length 333 m; draft 11 m.

Type: Tanker. MMSI: 538004633.

Date/timePositionNaut miles runAvg speedWind from/ knotsBaromVisibWave heightAir tempDewpointWater temp
2018-Feb-02 01:39N 29°41' W 117°29'5314.7
2018-Feb-01 22:00N 30°26' W 118°03'4614.2
2018-Feb-01 18:46N 31°11' W 117°53'3914.1
2018-Feb-01 16:01N 31°48' W 117°40'015.9
2018-Feb-01 16:00N 31°48' W 117°40'813.9
2018-Feb-01 15:25N 31°56' W 117°38'614.2
2018-Feb-01 15:00N 32°02' W 117°38'2114.3
2018-Feb-01 13:30N 32°23' W 117°37'713.8
2018-Feb-01 13:00N 32°30' W 117°36'612.0
2018-Feb-01 12:30N 32°36' W 117°37'611.9
2018-Feb-01 12:01N 32°42' W 117°41'1211.8
2018-Feb-01 11:01N 32°52' W 117°48'611.9
2018-Feb-01 10:31N 32°56' W 117°52'2 3.6
2018-Feb-01 10:00N 32°58' W 117°52'1 2.7
2018-Feb-01 09:30N 32°59' W 117°53'1 2.8
2018-Feb-01 09:00N 33°01' W 117°54'1 1.0
2018-Feb-01 08:30N 33°01' W 117°54'2 1.9
2018-Feb-01 07:30N 33°02' W 117°56'3 6.9
2018-Feb-01 07:00N 33°05' W 117°58'611.7
2018-Feb-01 06:30N 33°11' W 118°01'611.8
2018-Feb-01 06:01N 33°16' W 118°04'611.6
2018-Feb-01 05:30N 33°21' W 118°07'611.6
2018-Feb-01 05:00N 33°27' W 118°09'611.9
2018-Feb-01 04:30N 33°32' W 118°12'510.9
2018-Feb-01 04:00N 33°38' W 118°13'6 6.5
2018-Feb-01 03:00N 33°44' W 118°13'0 0.1
2018-Feb-01 02:30N 33°44' W 118°13'0 0.0
2018-Feb-01 02:00N 33°44' W 118°13'0 0.1
2018-Feb-01 01:30N 33°44' W 118°13'0 0.0
2018-Feb-01 01:00N 33°44' W 118°13'0 0.0
2018-Feb-01 00:30N 33°44' W 118°13'0 0.1
2018-Feb-01 00:00N 33°44' W 118°13'0 0.1
2018-Jan-31 23:00N 33°44' W 118°13'0 0.0
2018-Jan-31 22:24N 33°44' W 118°13'0 0.0
2018-Jan-31 21:00N 33°44' W 118°13'0 0.1
2018-Jan-31 20:30N 33°44' W 118°13'0 0.1
2018-Jan-31 20:00N 33°44' W 118°13'0 0.2
2018-Jan-31 19:30N 33°44' W 118°13'0 0.2
2018-Jan-31 19:00N 33°44' W 118°13'0 0.2
2018-Jan-31 18:30N 33°44' W 118°13'0 0.0
2018-Jan-31 18:00N 33°44' W 118°13'0 0.1
2018-Jan-31 17:30N 33°44' W 118°13'0 0.1
2018-Jan-31 17:00N 33°44' W 118°13'0 0.0
2018-Jan-31 16:27N 33°44' W 118°13'0 0.1
2018-Jan-31 16:00N 33°44' W 118°13'0 0.0
2018-Jan-31 15:30N 33°44' W 118°13'0 0.0
2018-Jan-31 14:57N 33°44' W 118°13'0 0.0
2018-Jan-31 14:09N 33°44' W 118°13'0 0.0
2018-Jan-31 12:57N 33°44' W 118°13'0 0.1
2018-Jan-31 12:30N 33°44' W 118°13'0 0.2
2018-Jan-31 11:54N 33°44' W 118°13'0 0.1
2018-Jan-31 11:30N 33°44' W 118°13'0 0.0
2018-Jan-31 11:00N 33°44' W 118°13'0 0.0
2018-Jan-31 10:30N 33°44' W 118°13'0 0.0
2018-Jan-31 10:00N 33°44' W 118°13'0 0.0
2018-Jan-31 09:30N 33°44' W 118°13'0 0.0
2018-Jan-31 08:59N 33°44' W 118°13'0 0.1
2018-Jan-31 08:26N 33°44' W 118°13'0 0.2
2018-Jan-31 08:00N 33°44' W 118°13'0 0.1
2018-Jan-31 07:26N 33°44' W 118°13'0 0.1
2018-Jan-31 06:53N 33°44' W 118°13'0 0.2
2018-Jan-31 06:29N 33°44' W 118°13'0 0.1
2018-Jan-31 05:59N 33°44' W 118°13'0 0.0
2018-Jan-31 05:29N 33°44' W 118°13'0 0.1
2018-Jan-31 04:56N 33°44' W 118°13'0 0.2
2018-Jan-31 04:29N 33°44' W 118°13'0 0.1
2018-Jan-31 03:59N 33°44' W 118°13'0 0.0
2018-Jan-31 03:29N 33°44' W 118°13'0 0.1
2018-Jan-31 02:59N 33°44' W 118°13'0 0.2
2018-Jan-31 02:29N 33°44' W 118°13'0 0.2
2018-Jan-31 01:59N 33°44' W 118°13'0 0.1
2018-Jan-31 01:26N 33°44' W 118°13'0 0.1
2018-Jan-31 00:59N 33°44' W 118°13'3 3.2
2018-Jan-31 00:00N 33°41' W 118°11'3 5.9
2018-Jan-30 23:30N 33°38' W 118°10'2 4.9
2018-Jan-30 23:00N 33°36' W 118°10'4 8.6
2018-Jan-30 22:30N 33°32' W 118°08'3 2.9
2018-Jan-30 21:30N 33°29' W 118°07'1 1.3
2018-Jan-30 21:00N 33°29' W 118°06'0 0.3
2018-Jan-30 20:30N 33°29' W 118°06'0 0.2
2018-Jan-30 20:00N 33°29' W 118°06'0 0.4
2018-Jan-30 19:30N 33°28' W 118°07'1 1.3
2018-Jan-30 19:00N 33°28' W 118°06'2 3.0
2018-Jan-30 18:30N 33°26' W 118°06'4 8.1
2018-Jan-30 17:58N 33°22' W 118°04'4 9.7
2018-Jan-30 17:30N 33°18' W 118°02'4 8.8
2018-Jan-30 17:00N 33°14' W 117°59'2 3.3
2018-Jan-30 16:30N 33°13' W 117°59'2 3.7
2018-Jan-30 16:00N 33°11' W 117°58'3 5.8
2018-Jan-30 15:30N 33°08' W 117°56'3 6.3
2018-Jan-30 15:00N 33°06' W 117°54'3 6.7
2018-Jan-30 14:30N 33°04' W 117°51'1 1.4
2018-Jan-30 13:30N 33°03' W 117°49'0 0.8
2018-Jan-30 13:00N 33°03' W 117°49'0 1.0
2018-Jan-30 12:30N 33°02' W 117°49'0 0.7
2018-Jan-30 12:00N 33°02' W 117°49'0 0.7
2018-Jan-30 11:30N 33°02' W 117°48'1 0.7
2018-Jan-30 10:30N 33°01' W 117°48'1 0.8
2018-Jan-30 09:30N 33°01' W 117°47'0 0.8
2018-Jan-30 09:00N 33°00' W 117°47'0 0.8
2018-Jan-30 08:30N 32°60' W 117°47'0 0.8
2018-Jan-30 08:00N 32°59' W 117°47'0 1.0
2018-Jan-30 07:30N 32°59' W 117°46'0 0.9
2018-Jan-30 07:00N 32°59' W 117°46'0 0.9
2018-Jan-30 06:28N 32°58' W 117°46'0 1.0
2018-Jan-30 06:00N 32°58' W 117°46'0 0.9
2018-Jan-30 05:30N 32°57' W 117°45'1 1.0
2018-Jan-30 05:00N 32°57' W 117°45'0 1.0
2018-Jan-30 04:30N 32°57' W 117°45'1 1.2
2018-Jan-30 04:00N 32°56' W 117°44'1 1.1
2018-Jan-30 03:30N 32°56' W 117°44'1 1.1
2018-Jan-30 03:00N 32°55' W 117°44'0 0.9
2018-Jan-30 02:30N 32°55' W 117°44'0 0.8
2018-Jan-30 02:00N 32°54' W 117°44'0 0.7
2018-Jan-30 01:30N 32°54' W 117°44'0 0.7
2018-Jan-30 01:00N 32°54' W 117°44'1 1.3
2018-Jan-30 00:30N 32°54' W 117°45'1 1.3
2018-Jan-30 00:00N 32°55' W 117°45'1 1.2
2018-Jan-29 23:30N 32°55' W 117°45'1 1.3
2018-Jan-29 23:00N 32°56' W 117°46'1 1.4
2018-Jan-29 22:30N 32°56' W 117°46'1 1.6
2018-Jan-29 22:00N 32°57' W 117°47'1 1.5
2018-Jan-29 21:30N 32°58' W 117°47'1 1.6
2018-Jan-29 21:00N 32°58' W 117°48'1 1.5
2018-Jan-29 20:30N 32°59' W 117°48'1 1.7
2018-Jan-29 20:00N 32°59' W 117°49'1 2.4
2018-Jan-29 19:30N 33°00' W 117°50'2 3.6
2018-Jan-29 19:00N 33°02' W 117°51'2 4.6
2018-Jan-29 18:30N 33°04' W 117°53'2 4.6
2018-Jan-29 18:00N 33°06' W 117°54'2 4.3
2018-Jan-29 17:30N 33°07' W 117°56'1 1.0
2018-Jan-29 17:00N 33°08' W 117°56'1 1.2
2018-Jan-29 16:30N 33°08' W 117°57'1 1.9
2018-Jan-29 16:00N 33°09' W 117°57'2 3.4
2018-Jan-29 15:30N 33°10' W 117°56'1 2.1
2018-Jan-29 15:00N 33°09' W 117°55'0 0.4
2018-Jan-29 14:30N 33°09' W 117°55'0 0.2
2018-Jan-29 14:00N 33°09' W 117°55'0 0.1
2018-Jan-29 13:30N 33°09' W 117°55'0 0.1
2018-Jan-29 13:00N 33°09' W 117°56'0 0.0
2018-Jan-29 12:30N 33°09' W 117°56'0 0.1
2018-Jan-29 12:00N 33°09' W 117°56'0 0.3
2018-Jan-29 11:30N 33°09' W 117°56'0 0.2
2018-Jan-29 10:59N 33°09' W 117°56'0 0.3
2018-Jan-29 10:30N 33°09' W 117°56'0 0.4
2018-Jan-29 10:00N 33°09' W 117°56'0 0.4
2018-Jan-29 09:30N 33°10' W 117°56'0 0.3
2018-Jan-29 09:00N 33°10' W 117°57'0 0.3
2018-Jan-29 08:30N 33°10' W 117°57'0 0.4
2018-Jan-29 08:00N 33°10' W 117°57'0 0.4
2018-Jan-29 07:30N 33°10' W 117°57'0 0.5
2018-Jan-29 07:01N 33°10' W 117°58'0 0.4
2018-Jan-29 06:30N 33°10' W 117°58'0 0.2
2018-Jan-29 06:00N 33°10' W 117°58'0 0.2
2018-Jan-29 05:30N 33°10' W 117°58'0 0.2
2018-Jan-29 05:00N 33°10' W 117°58'0 0.1
2018-Jan-29 04:30N 33°10' W 117°58'0 0.2
2018-Jan-29 04:00N 33°10' W 117°58'0 0.3
2018-Jan-29 03:30N 33°10' W 117°58'0 0.7
2018-Jan-29 03:00N 33°10' W 117°57'1 1.5
2018-Jan-29 02:30N 33°09' W 117°57'2 3.0
2018-Jan-29 02:00N 33°09' W 117°55'3 6.8
2018-Jan-29 01:30N 33°07' W 117°52'2 4.2
2018-Jan-29 01:00N 33°05' W 117°50'1 1.0
2018-Jan-29 00:30N 33°05' W 117°49'1 1.6
2018-Jan-29 00:00N 33°04' W 117°49'1 1.4
2018-Jan-28 23:30N 33°04' W 117°48'1 1.5
2018-Jan-28 23:00N 33°03' W 117°48'1 2.1
2018-Jan-28 22:30N 33°02' W 117°47'1 2.3
2018-Jan-28 21:58N 33°01' W 117°47'1 1.8
2018-Jan-28 21:17N 32°60' W 117°46'0 1.5
2018-Jan-28 21:00N 32°59' W 117°46'0 0.5
2018-Jan-28 20:30N 32°59' W 117°46'0 0.7
2018-Jan-28 20:00N 32°59' W 117°46'1 2.0
2018-Jan-28 19:30N 32°58' W 117°45'1 2.2
2018-Jan-28 19:00N 32°57' W 117°45'1 1.8
2018-Jan-28 18:30N 32°56' W 117°44'0 0.9
2018-Jan-28 18:00N 32°56' W 117°44'0 0.8
2018-Jan-28 17:30N 32°56' W 117°44'0 0.7
2018-Jan-28 17:00N 32°55' W 117°43'0 0.6
2018-Jan-28 16:30N 32°55' W 117°43'0 0.6
2018-Jan-28 16:00N 32°55' W 117°43'1 1.1
2018-Jan-28 15:28N 32°54' W 117°43'1 1.4
2018-Jan-28 15:00N 32°54' W 117°43'0 1.0
2018-Jan-28 14:30N 32°54' W 117°43'0 0.9
2018-Jan-28 14:00N 32°54' W 117°44'0 1.0
2018-Jan-28 13:30N 32°54' W 117°44'0 0.9
2018-Jan-28 13:00N 32°54' W 117°45'0 0.9
2018-Jan-28 12:30N 32°54' W 117°46'1 1.0
2018-Jan-28 12:00N 32°55' W 117°46'0 1.0
2018-Jan-28 11:30N 32°55' W 117°47'1 1.0
2018-Jan-28 11:01N 32°55' W 117°47'1 1.1
2018-Jan-28 10:30N 32°56' W 117°47'1 1.2
2018-Jan-28 10:00N 32°56' W 117°48'1 1.5
2018-Jan-28 09:30N 32°57' W 117°48'1 1.8
2018-Jan-28 09:00N 32°58' W 117°49'1 2.4
2018-Jan-28 08:30N 32°59' W 117°50'1 3.0
2018-Jan-28 08:00N 32°60' W 117°51'2 4.3
2018-Jan-28 07:31N 33°02' W 117°52'2 4.6
2018-Jan-28 07:00N 33°04' W 117°53'2 4.7
2018-Jan-28 06:30N 33°06' W 117°55'2 4.5
2018-Jan-28 06:00N 33°08' W 117°56'1 1.9
2018-Jan-28 05:30N 33°08' W 117°57'1 1.1
2018-Jan-28 05:00N 33°09' W 117°57'2 3.7
2018-Jan-28 04:31N 33°10' W 117°56'4 7.6
2018-Jan-28 04:00N 33°11' W 117°52'0 0.9
2018-Jan-28 03:30N 33°11' W 117°51'0 0.7
2018-Jan-28 03:00N 33°11' W 117°52'0 0.5
2018-Jan-28 02:30N 33°11' W 117°52'0 0.6
2018-Jan-28 02:00N 33°11' W 117°52'0 0.6
2018-Jan-28 01:31N 33°11' W 117°53'0 0.6
2018-Jan-28 01:01N 33°11' W 117°53'0 0.7
2018-Jan-28 00:31N 33°11' W 117°53'0 0.8
2018-Jan-28 00:00N 33°11' W 117°54'0 0.7
2018-Jan-27 23:30N 33°11' W 117°54'0 0.8
2018-Jan-27 23:00N 33°11' W 117°55'0 0.7
2018-Jan-27 22:31N 33°11' W 117°55'0 0.9
2018-Jan-27 22:00N 33°11' W 117°56'0 0.8
2018-Jan-27 21:30N 33°11' W 117°56'0 0.8
2018-Jan-27 21:01N 33°11' W 117°57'0 0.7
2018-Jan-27 20:31N 33°11' W 117°57'0 0.5
2018-Jan-27 20:00N 33°11' W 117°57'0 0.4
2018-Jan-27 19:30N 33°11' W 117°58'0 0.4
2018-Jan-27 19:01N 33°11' W 117°57'0 0.9
2018-Jan-27 18:31N 33°11' W 117°57'2 3.3
2018-Jan-27 18:00N 33°09' W 117°57'4 7.7
2018-Jan-27 17:30N 33°05' W 117°57'4 8.1
2018-Jan-27 16:59N 33°01' W 117°57'4 8.1
2018-Jan-27 16:30N 32°57' W 117°57'1 1.7
2018-Jan-27 15:59N 32°57' W 117°58'0 0.4
2018-Jan-27 15:30N 32°57' W 117°59'0 0.4
2018-Jan-27 15:00N 32°57' W 117°59'0 0.4
2018-Jan-27 14:30N 32°57' W 117°59'0 0.2
2018-Jan-27 14:01N 32°57' W 117°59'0 0.3
2018-Jan-27 13:31N 32°57' W 117°59'0 0.3
2018-Jan-27 13:00N 32°57' W 117°59'0 0.3
2018-Jan-27 12:30N 32°58' W 117°60'0 0.3
2018-Jan-27 12:00N 32°58' W 117°60'0 0.5
2018-Jan-27 11:31N 32°58' W 117°60'0 0.4
2018-Jan-27 11:00N 32°58' W 117°60'0 0.5
2018-Jan-27 10:30N 32°58' W 118°00'0 0.4
2018-Jan-27 10:00N 32°59' W 118°00'0 0.5
2018-Jan-27 09:30N 32°59' W 118°00'0 0.5
2018-Jan-27 09:01N 32°59' W 118°00'0 0.5
2018-Jan-27 08:30N 32°59' W 118°00'0 0.5
2018-Jan-27 08:00N 32°59' W 118°00'0 0.5
2018-Jan-27 07:30N 32°60' W 118°00'0 0.6
2018-Jan-27 07:00N 32°60' W 118°01'0 0.6
2018-Jan-27 06:30N 33°00' W 118°01'0 0.5
2018-Jan-27 06:00N 33°00' W 118°01'0 0.6
2018-Jan-27 05:31N 33°01' W 118°01'0 0.7
2018-Jan-27 05:00N 33°01' W 118°01'0 0.6
2018-Jan-27 04:30N 33°01' W 118°01'0 0.6
2018-Jan-27 03:59N 33°02' W 118°01'0 0.7
2018-Jan-27 03:30N 33°02' W 118°01'0 0.6
2018-Jan-27 03:00N 33°02' W 118°02'0 0.7
2018-Jan-27 02:29N 33°03' W 118°02'0 0.6
2018-Jan-27 02:00N 33°03' W 118°02'0 0.6
2018-Jan-27 01:30N 33°03' W 118°02'0 0.7
2018-Jan-27 01:01N 33°03' W 118°02'0 0.6
2018-Jan-27 00:30N 33°04' W 118°02'0 0.6
2018-Jan-27 00:00N 33°04' W 118°03'0 0.6
2018-Jan-26 23:30N 33°04' W 118°03'0 0.6
2018-Jan-26 23:00N 33°04' W 118°03'0 0.7
2018-Jan-26 22:30N 33°05' W 118°03'0 0.7
2018-Jan-26 22:00N 33°05' W 118°03'2 3.6
2018-Jan-26 21:30N 33°05' W 118°01'5 9.2
2018-Jan-26 21:00N 33°07' W 117°56'510.0
2018-Jan-26 20:30N 33°09' W 117°50'5 9.4
2018-Jan-26 20:00N 33°11' W 117°45'3 5.2
2018-Jan-26 19:30N 33°11' W 117°42'0 0.8
2018-Jan-26 19:00N 33°11' W 117°43'0 0.6
2018-Jan-26 18:30N 33°10' W 117°43'0 0.6
2018-Jan-26 18:00N 33°10' W 117°43'0 0.6
2018-Jan-26 17:30N 33°10' W 117°43'0 0.5
2018-Jan-26 17:00N 33°10' W 117°44'0 0.5
2018-Jan-26 16:30N 33°10' W 117°44'0 0.4
2018-Jan-26 16:00N 33°10' W 117°44'0 0.4
2018-Jan-26 15:30N 33°10' W 117°44'0 0.5
2018-Jan-26 15:00N 33°10' W 117°45'0 0.5
2018-Jan-26 14:30N 33°10' W 117°45'0 0.5
2018-Jan-26 14:00N 33°10' W 117°45'0 0.6
2018-Jan-26 13:30N 33°11' W 117°45'0 0.6
2018-Jan-26 13:00N 33°11' W 117°46'0 0.6
2018-Jan-26 12:30N 33°11' W 117°46'0 0.6
2018-Jan-26 12:00N 33°11' W 117°46'0 0.8
2018-Jan-26 11:30N 33°11' W 117°47'0 0.9
2018-Jan-26 11:00N 33°11' W 117°47'0 0.9
2018-Jan-26 10:30N 33°11' W 117°48'1 1.1
2018-Jan-26 10:00N 33°11' W 117°49'1 1.1
2018-Jan-26 09:30N 33°11' W 117°49'1 1.3
2018-Jan-26 09:00N 33°11' W 117°50'1 1.4
2018-Jan-26 08:30N 33°10' W 117°51'1 1.3
2018-Jan-26 08:00N 33°10' W 117°52'1 1.5
2018-Jan-26 07:30N 33°10' W 117°52'1 1.4
2018-Jan-26 07:00N 33°10' W 117°53'1 1.4
2018-Jan-26 06:30N 33°09' W 117°54'1 1.2
2018-Jan-26 06:00N 33°09' W 117°55'1 1.1
2018-Jan-26 05:30N 33°09' W 117°55'1 1.2
2018-Jan-26 05:00N 33°09' W 117°56'1 1.0
2018-Jan-26 04:30N 33°09' W 117°57'0 0.8
2018-Jan-26 03:53N 33°09' W 117°57'1 0.9
2018-Jan-26 03:19N 33°09' W 117°57'1 2.4
2018-Jan-26 02:58N 33°08' W 117°57'3 6.7
2018-Jan-26 02:30N 33°08' W 117°53'3 5.1
2018-Jan-26 02:00N 33°08' W 117°50'0 0.9
2018-Jan-26 01:30N 33°09' W 117°50'0 0.9
2018-Jan-26 01:00N 33°09' W 117°50'1 2.1
2018-Jan-26 00:30N 33°10' W 117°49'1 1.0
2018-Jan-26 00:00N 33°10' W 117°49'0 0.3
2018-Jan-25 23:30N 33°10' W 117°49'0 0.3
2018-Jan-25 22:59N 33°09' W 117°49'0 0.4
2018-Jan-25 22:30N 33°09' W 117°50'0 0.4
2018-Jan-25 22:00N 33°09' W 117°50'0 0.4
2018-Jan-25 21:30N 33°09' W 117°50'0 0.3
2018-Jan-25 21:00N 33°09' W 117°50'0 0.4
2018-Jan-25 20:30N 33°09' W 117°50'0 0.4
2018-Jan-25 20:00N 33°09' W 117°51'0 0.4
2018-Jan-25 19:30N 33°09' W 117°51'0 0.4
2018-Jan-25 19:00N 33°09' W 117°51'0 0.5
2018-Jan-25 18:30N 33°09' W 117°51'0 0.4
2018-Jan-25 18:00N 33°09' W 117°52'0 0.5
2018-Jan-25 17:30N 33°09' W 117°52'0 0.5
2018-Jan-25 17:00N 33°09' W 117°52'0 0.5
2018-Jan-25 16:31N 33°09' W 117°53'0 0.5
2018-Jan-25 16:01N 33°09' W 117°53'0 0.5
2018-Jan-25 15:31N 33°09' W 117°53'0 0.4
2018-Jan-25 15:01N 33°09' W 117°53'0 0.4
2018-Jan-25 14:30N 33°10' W 117°54'0 0.4
2018-Jan-25 14:00N 33°10' W 117°54'0 0.6
2018-Jan-25 13:29N 33°09' W 117°54'0 0.6
2018-Jan-25 13:00N 33°09' W 117°55'0 0.8
2018-Jan-25 12:25N 33°09' W 117°55'0 0.8
2018-Jan-25 12:00N 33°09' W 117°55'0 0.7
2018-Jan-25 11:30N 33°09' W 117°56'0 0.6
2018-Jan-25 10:59N 33°09' W 117°56'0 0.5
2018-Jan-25 10:30N 33°09' W 117°56'0 0.4
2018-Jan-25 10:00N 33°08' W 117°57'0 0.2
2018-Jan-25 09:30N 33°08' W 117°57'0 0.1
2018-Jan-25 09:01N 33°08' W 117°57'0 0.1
2018-Jan-25 08:30N 33°08' W 117°57'0 0.1
2018-Jan-25 08:00N 33°08' W 117°57'0 0.2
2018-Jan-25 07:30N 33°08' W 117°57'0 0.4
2018-Jan-25 07:00N 33°08' W 117°57'0 1.0
2018-Jan-25 06:30N 33°08' W 117°56'1 2.0
2018-Jan-25 06:00N 33°07' W 117°55'2 4.0
2018-Jan-25 05:30N 33°06' W 117°53'2 4.6
2018-Jan-25 04:59N 33°06' W 117°50'1 1.5
2018-Jan-25 04:29N 33°05' W 117°50'1 1.1
2018-Jan-25 04:00N 33°05' W 117°49'1 2.2
2018-Jan-25 03:30N 33°04' W 117°48'1 2.5
2018-Jan-25 03:00N 33°03' W 117°47'1 1.4
2018-Jan-25 02:30N 33°03' W 117°47'0 1.0
2018-Jan-25 02:00N 33°02' W 117°47'1 1.2
2018-Jan-25 01:30N 33°02' W 117°46'0 0.9
2018-Jan-25 01:01N 33°01' W 117°46'0 0.9
2018-Jan-25 00:31N 33°01' W 117°46'1 1.2
2018-Jan-25 00:01N 33°00' W 117°46'1 1.2
2018-Jan-24 23:30N 32°60' W 117°46'1 1.0
2018-Jan-24 23:00N 32°59' W 117°45'1 1.1
2018-Jan-24 22:30N 32°59' W 117°45'1 1.0
2018-Jan-24 22:00N 32°58' W 117°45'1 1.0
2018-Jan-24 21:30N 32°58' W 117°45'1 1.0
2018-Jan-24 21:00N 32°57' W 117°45'1 1.2
2018-Jan-24 20:30N 32°57' W 117°45'1 1.0
2018-Jan-24 20:00N 32°56' W 117°44'0 1.0
2018-Jan-24 19:31N 32°56' W 117°45'1 1.0
2018-Jan-24 19:00N 32°57' W 117°45'0 0.9
2018-Jan-24 18:31N 32°57' W 117°46'0 0.9
2018-Jan-24 18:00N 32°57' W 117°46'0 0.9
2018-Jan-24 17:30N 32°58' W 117°46'0 1.0
2018-Jan-24 17:00N 32°58' W 117°47'0 0.9
2018-Jan-24 16:30N 32°58' W 117°47'0 0.9
2018-Jan-24 16:00N 32°59' W 117°47'0 0.9
2018-Jan-24 15:31N 32°59' W 117°48'0 0.9
2018-Jan-24 15:00N 32°59' W 117°48'0 1.0
2018-Jan-24 14:30N 32°60' W 117°48'0 1.0
2018-Jan-24 14:00N 33°00' W 117°49'0 0.8
2018-Jan-24 13:30N 33°00' W 117°49'0 0.8
2018-Jan-24 13:01N 33°00' W 117°50'0 0.9
2018-Jan-24 12:30N 33°01' W 117°50'0 0.9
2018-Jan-24 12:00N 33°01' W 117°51'1 1.8
2018-Jan-24 11:30N 33°02' W 117°51'1 2.5
2018-Jan-24 11:00N 33°03' W 117°52'2 3.7
2018-Jan-24 10:30N 33°04' W 117°53'2 4.4
2018-Jan-24 10:00N 33°06' W 117°55'2 4.6
2018-Jan-24 09:30N 33°08' W 117°56'1 2.9
2018-Jan-24 09:00N 33°09' W 117°57'1 1.4
2018-Jan-24 08:30N 33°10' W 117°57'0 1.0
2018-Jan-24 08:00N 33°10' W 117°57'0 0.7
2018-Jan-24 07:30N 33°09' W 117°58'1 2.2
2018-Jan-24 07:00N 33°08' W 117°57'3 6.1
2018-Jan-24 06:30N 33°07' W 117°54'4 8.7
2018-Jan-24 06:00N 33°04' W 117°50'4 7.6
2018-Jan-24 05:30N 33°02' W 117°46'1 2.4
2018-Jan-24 05:00N 33°01' W 117°45'0 0.6
2018-Jan-24 04:30N 33°01' W 117°45'0 0.6
2018-Jan-24 04:00N 33°02' W 117°46'0 0.6
2018-Jan-24 03:31N 33°02' W 117°46'0 0.7
2018-Jan-24 03:00N 33°02' W 117°46'0 0.7
2018-Jan-24 02:31N 33°02' W 117°47'0 0.7
2018-Jan-24 02:01N 33°02' W 117°47'0 0.8
2018-Jan-24 01:31N 33°02' W 117°48'0 0.8
2018-Jan-24 01:01N 33°02' W 117°48'0 0.8
2018-Jan-24 00:31N 33°02' W 117°49'0 0.8
2018-Jan-24 00:00N 33°02' W 117°49'0 0.8
2018-Jan-23 23:30N 33°02' W 117°50'0 0.8
2018-Jan-23 23:00N 33°01' W 117°50'0 0.8
2018-Jan-23 22:31N 33°01' W 117°51'0 0.7
2018-Jan-23 22:00N 33°01' W 117°51'0 0.7
2018-Jan-23 21:30N 33°01' W 117°51'0 0.7
2018-Jan-23 21:00N 33°01' W 117°52'0 0.6
2018-Jan-23 20:31N 33°01' W 117°52'0 0.7
2018-Jan-23 20:00N 33°01' W 117°53'0 0.6
2018-Jan-23 19:30N 33°01' W 117°53'0 0.7
2018-Jan-23 19:00N 33°01' W 117°53'0 0.8
2018-Jan-23 18:30N 33°01' W 117°54'0 0.7
2018-Jan-23 18:00N 33°01' W 117°54'0 0.6
2018-Jan-23 17:30N 33°00' W 117°55'0 0.7
2018-Jan-23 17:00N 33°00' W 117°55'0 0.7
2018-Jan-23 16:30N 33°00' W 117°55'0 0.6
2018-Jan-23 16:00N 33°00' W 117°56'0 0.6
2018-Jan-23 15:30N 33°00' W 117°56'0 0.6
2018-Jan-23 15:01N 33°00' W 117°57'0 0.5
2018-Jan-23 14:30N 33°00' W 117°57'0 0.6
2018-Jan-23 14:00N 33°00' W 117°57'0 0.5
2018-Jan-23 13:30N 33°00' W 117°57'0 0.5
2018-Jan-23 13:00N 33°00' W 117°58'0 0.5
2018-Jan-23 12:30N 33°00' W 117°58'0 0.5
2018-Jan-23 12:00N 33°00' W 117°58'0 0.4
2018-Jan-23 11:30N 33°00' W 117°59'0 0.4
2018-Jan-23 11:00N 33°00' W 117°59'0 0.4
2018-Jan-23 10:30N 33°00' W 117°59'0 0.3
2018-Jan-23 10:00N 33°00' W 117°59'0 0.1
2018-Jan-23 09:30N 33°00' W 117°59'0 0.2
2018-Jan-23 09:00N 33°00' W 117°59'0 0.3
2018-Jan-23 08:28N 33°00' W 117°60'0 0.3
2018-Jan-23 07:57N 33°00' W 117°60'0 0.3
2018-Jan-23 07:30N 33°00' W 118°00'0 0.3
2018-Jan-23 07:00N 33°00' W 118°00'0 0.3
2018-Jan-23 06:30N 33°00' W 118°00'0 0.4
2018-Jan-23 06:00N 33°00' W 118°01'0 0.7
2018-Jan-23 05:30N 33°00' W 118°01'0 0.6
2018-Jan-23 05:01N 33°01' W 118°01'0 0.6
2018-Jan-23 04:31N 33°01' W 118°02'0 0.6
2018-Jan-23 04:00N 33°01' W 118°02'0 0.6
2018-Jan-23 03:30N 33°01' W 118°02'0 0.7
2018-Jan-23 02:58N 33°01' W 118°03'0 0.6
2018-Jan-23 02:30N 33°01' W 118°03'0 0.7
2018-Jan-23 02:00N 33°01' W 118°03'  

Dump ship's entire track history